sensor_id;sensor_type;location;lat;lon;timestamp;P1;durP1;ratioP1;P2;durP2;ratioP2
55815;SDS011;41744;52.404;16.942;2023-07-28T00:02:10;6.65;;;3.63;;
55815;SDS011;41744;52.404;16.942;2023-07-28T00:07:40;6.03;;;3.90;;
55815;SDS011;41744;52.404;16.942;2023-07-28T00:10:06;5.93;;;3.80;;
55815;SDS011;41744;52.404;16.942;2023-07-28T00:12:32;8.50;;;3.90;;
55815;SDS011;41744;52.404;16.942;2023-07-28T00:14:58;7.78;;;4.15;;
55815;SDS011;41744;52.404;16.942;2023-07-28T00:17:25;5.35;;;3.50;;
55815;SDS011;41744;52.404;16.942;2023-07-28T00:19:51;6.22;;;3.80;;
55815;SDS011;41744;52.404;16.942;2023-07-28T00:22:17;5.55;;;3.78;;
55815;SDS011;41744;52.404;16.942;2023-07-28T00:24:43;6.28;;;3.83;;
55815;SDS011;41744;52.404;16.942;2023-07-28T00:27:09;8.05;;;3.67;;
55815;SDS011;41744;52.404;16.942;2023-07-28T00:29:35;6.35;;;3.70;;
55815;SDS011;41744;52.404;16.942;2023-07-28T00:32:01;5.43;;;3.65;;
55815;SDS011;41744;52.404;16.942;2023-07-28T00:37:30;6.53;;;3.90;;
55815;SDS011;41744;52.404;16.942;2023-07-28T00:39:56;6.57;;;3.78;;
55815;SDS011;41744;52.404;16.942;2023-07-28T00:42:22;9.30;;;3.80;;
55815;SDS011;41744;52.404;16.942;2023-07-28T00:44:48;7.05;;;3.58;;
55815;SDS011;41744;52.404;16.942;2023-07-28T00:47:14;7.00;;;3.90;;
55815;SDS011;41744;52.404;16.942;2023-07-28T00:49:40;5.88;;;3.78;;
55815;SDS011;41744;52.404;16.942;2023-07-28T00:52:07;8.20;;;4.03;;
55815;SDS011;41744;52.404;16.942;2023-07-28T00:54:33;6.97;;;3.60;;
55815;SDS011;41744;52.404;16.942;2023-07-28T00:57:00;5.63;;;3.60;;
55815;SDS011;41744;52.404;16.942;2023-07-28T00:59:26;5.50;;;3.42;;
55815;SDS011;41744;52.404;16.942;2023-07-28T01:01:52;5.90;;;3.80;;
55815;SDS011;41744;52.404;16.942;2023-07-28T01:07:43;6.20;;;3.80;;
55815;SDS011;41744;52.404;16.942;2023-07-28T01:10:14;7.40;;;3.55;;
55815;SDS011;41744;52.404;16.942;2023-07-28T01:12:43;6.65;;;3.75;;
55815;SDS011;41744;52.404;16.942;2023-07-28T01:18:19;6.47;;;3.58;;
55815;SDS011;41744;52.404;16.942;2023-07-28T01:20:45;5.82;;;3.60;;
55815;SDS011;41744;52.404;16.942;2023-07-28T01:23:19;5.60;;;3.60;;
55815;SDS011;41744;52.404;16.942;2023-07-28T01:28:21;8.75;;;3.65;;
55815;SDS011;41744;52.404;16.942;2023-07-28T01:30:47;5.38;;;3.60;;
55815;SDS011;41744;52.404;16.942;2023-07-28T01:33:13;6.13;;;3.78;;
55815;SDS011;41744;52.404;16.942;2023-07-28T01:35:39;5.95;;;3.70;;
55815;SDS011;41744;52.404;16.942;2023-07-28T01:38:06;8.05;;;3.97;;
55815;SDS011;41744;52.404;16.942;2023-07-28T01:40:32;10.57;;;4.20;;
55815;SDS011;41744;52.404;16.942;2023-07-28T01:42:58;5.55;;;3.80;;
55815;SDS011;41744;52.404;16.942;2023-07-28T01:45:24;6.72;;;3.85;;
55815;SDS011;41744;52.404;16.942;2023-07-28T01:47:50;7.78;;;3.88;;
55815;SDS011;41744;52.404;16.942;2023-07-28T01:50:16;6.13;;;3.78;;
55815;SDS011;41744;52.404;16.942;2023-07-28T01:52:42;8.77;;;4.00;;
55815;SDS011;41744;52.404;16.942;2023-07-28T01:58:11;6.22;;;3.97;;
55815;SDS011;41744;52.404;16.942;2023-07-28T02:00:37;7.10;;;4.28;;
55815;SDS011;41744;52.404;16.942;2023-07-28T02:03:03;6.78;;;4.20;;
55815;SDS011;41744;52.404;16.942;2023-07-28T02:05:29;6.28;;;4.07;;
55815;SDS011;41744;52.404;16.942;2023-07-28T02:07:56;4.93;;;3.65;;
55815;SDS011;41744;52.404;16.942;2023-07-28T02:10:31;7.65;;;3.75;;
55815;SDS011;41744;52.404;16.942;2023-07-28T02:12:57;8.77;;;4.13;;
55815;SDS011;41744;52.404;16.942;2023-07-28T02:18:33;8.18;;;3.88;;
55815;SDS011;41744;52.404;16.942;2023-07-28T02:20:59;6.53;;;3.75;;
55815;SDS011;41744;52.404;16.942;2023-07-28T02:26:29;6.18;;;4.07;;
55815;SDS011;41744;52.404;16.942;2023-07-28T02:28:55;6.43;;;4.13;;
55815;SDS011;41744;52.404;16.942;2023-07-28T02:31:21;6.25;;;4.18;;
55815;SDS011;41744;52.404;16.942;2023-07-28T02:33:47;6.28;;;3.90;;
55815;SDS011;41744;52.404;16.942;2023-07-28T02:36:13;6.85;;;3.80;;
55815;SDS011;41744;52.404;16.942;2023-07-28T02:38:39;7.15;;;3.97;;
55815;SDS011;41744;52.404;16.942;2023-07-28T02:41:05;5.25;;;3.95;;
55815;SDS011;41744;52.404;16.942;2023-07-28T02:43:32;5.97;;;3.63;;
55815;SDS011;41744;52.404;16.942;2023-07-28T02:45:58;6.53;;;4.03;;
55815;SDS011;41744;52.404;16.942;2023-07-28T02:48:24;5.07;;;3.58;;
55815;SDS011;41744;52.404;16.942;2023-07-28T02:50:50;5.00;;;3.40;;
55815;SDS011;41744;52.404;16.942;2023-07-28T02:53:17;7.40;;;3.58;;
55815;SDS011;41744;52.404;16.942;2023-07-28T02:55:43;6.10;;;3.63;;
55815;SDS011;41744;52.404;16.942;2023-07-28T02:58:09;5.70;;;3.83;;
55815;SDS011;41744;52.404;16.942;2023-07-28T03:00:42;5.95;;;4.05;;
55815;SDS011;41744;52.404;16.942;2023-07-28T03:03:09;7.03;;;4.32;;
55815;SDS011;41744;52.404;16.942;2023-07-28T03:05:35;4.68;;;3.67;;
55815;SDS011;41744;52.404;16.942;2023-07-28T03:08:01;6.20;;;3.78;;
55815;SDS011;41744;52.404;16.942;2023-07-28T03:10:27;6.00;;;3.95;;
55815;SDS011;41744;52.404;16.942;2023-07-28T03:12:54;5.35;;;4.00;;
55815;SDS011;41744;52.404;16.942;2023-07-28T03:15:20;4.72;;;3.58;;
55815;SDS011;41744;52.404;16.942;2023-07-28T03:17:49;6.93;;;3.80;;
55815;SDS011;41744;52.404;16.942;2023-07-28T03:20:15;6.03;;;3.67;;
55815;SDS011;41744;52.404;16.942;2023-07-28T03:22:42;4.80;;;4.15;;
55815;SDS011;41744;52.404;16.942;2023-07-28T03:28:18;5.07;;;3.95;;
55815;SDS011;41744;52.404;16.942;2023-07-28T03:30:44;4.75;;;3.60;;
55815;SDS011;41744;52.404;16.942;2023-07-28T03:33:10;6.15;;;4.07;;
55815;SDS011;41744;52.404;16.942;2023-07-28T03:35:36;6.45;;;4.38;;
55815;SDS011;41744;52.404;16.942;2023-07-28T03:38:02;4.95;;;4.25;;
55815;SDS011;41744;52.404;16.942;2023-07-28T03:40:28;5.43;;;4.45;;
55815;SDS011;41744;52.404;16.942;2023-07-28T03:42:54;5.53;;;4.32;;
55815;SDS011;41744;52.404;16.942;2023-07-28T03:45:20;5.13;;;4.13;;
55815;SDS011;41744;52.404;16.942;2023-07-28T03:47:46;5.63;;;4.72;;
55815;SDS011;41744;52.404;16.942;2023-07-28T03:50:12;7.90;;;4.47;;
55815;SDS011;41744;52.404;16.942;2023-07-28T03:52:38;6.65;;;4.38;;
55815;SDS011;41744;52.404;16.942;2023-07-28T03:58:08;6.47;;;4.40;;
55815;SDS011;41744;52.404;16.942;2023-07-28T04:00:34;7.22;;;4.80;;
55815;SDS011;41744;52.404;16.942;2023-07-28T04:03:00;6.38;;;4.85;;
55815;SDS011;41744;52.404;16.942;2023-07-28T04:05:26;5.90;;;4.57;;
55815;SDS011;41744;52.404;16.942;2023-07-28T04:07:52;6.25;;;4.88;;
55815;SDS011;41744;52.404;16.942;2023-07-28T04:10:18;6.95;;;5.15;;
55815;SDS011;41744;52.404;16.942;2023-07-28T04:12:44;6.22;;;4.38;;
55815;SDS011;41744;52.404;16.942;2023-07-28T04:15:10;7.35;;;5.18;;
55815;SDS011;41744;52.404;16.942;2023-07-28T04:17:36;7.95;;;4.85;;
55815;SDS011;41744;52.404;16.942;2023-07-28T04:20:02;7.88;;;4.75;;
55815;SDS011;41744;52.404;16.942;2023-07-28T04:22:28;8.25;;;5.00;;
55815;SDS011;41744;52.404;16.942;2023-07-28T04:27:58;6.65;;;4.63;;
55815;SDS011;41744;52.404;16.942;2023-07-28T04:30:24;6.05;;;4.53;;
55815;SDS011;41744;52.404;16.942;2023-07-28T04:32:50;6.28;;;4.20;;
55815;SDS011;41744;52.404;16.942;2023-07-28T04:35:16;7.60;;;4.82;;
55815;SDS011;41744;52.404;16.942;2023-07-28T04:37:42;6.50;;;4.70;;
55815;SDS011;41744;52.404;16.942;2023-07-28T04:40:08;5.38;;;4.38;;
55815;SDS011;41744;52.404;16.942;2023-07-28T04:42:34;5.90;;;4.22;;
55815;SDS011;41744;52.404;16.942;2023-07-28T04:45:01;7.03;;;4.63;;
55815;SDS011;41744;52.404;16.942;2023-07-28T04:47:27;6.88;;;4.38;;
55815;SDS011;41744;52.404;16.942;2023-07-28T04:49:53;5.45;;;4.07;;
55815;SDS011;41744;52.404;16.942;2023-07-28T04:52:19;7.40;;;4.72;;
55815;SDS011;41744;52.404;16.942;2023-07-28T04:57:48;6.45;;;4.47;;
55815;SDS011;41744;52.404;16.942;2023-07-28T05:00:14;6.60;;;4.75;;
55815;SDS011;41744;52.404;16.942;2023-07-28T05:02:41;7.28;;;5.07;;
55815;SDS011;41744;52.404;16.942;2023-07-28T05:05:07;8.85;;;5.07;;
55815;SDS011;41744;52.404;16.942;2023-07-28T05:07:33;6.90;;;5.28;;
55815;SDS011;41744;52.404;16.942;2023-07-28T05:09:59;8.00;;;5.90;;
55815;SDS011;41744;52.404;16.942;2023-07-28T05:12:25;11.05;;;6.30;;
55815;SDS011;41744;52.404;16.942;2023-07-28T05:14:51;8.32;;;5.82;;
55815;SDS011;41744;52.404;16.942;2023-07-28T05:17:17;8.30;;;5.65;;
55815;SDS011;41744;52.404;16.942;2023-07-28T05:19:43;7.43;;;5.93;;
55815;SDS011;41744;52.404;16.942;2023-07-28T05:22:09;9.65;;;5.85;;
55815;SDS011;41744;52.404;16.942;2023-07-28T05:27:40;9.18;;;4.93;;
55815;SDS011;41744;52.404;16.942;2023-07-28T05:30:06;7.70;;;5.57;;
55815;SDS011;41744;52.404;16.942;2023-07-28T05:32:32;11.73;;;5.57;;
55815;SDS011;41744;52.404;16.942;2023-07-28T05:34:58;7.60;;;5.60;;
55815;SDS011;41744;52.404;16.942;2023-07-28T05:37:24;9.20;;;5.93;;
55815;SDS011;41744;52.404;16.942;2023-07-28T05:39:50;8.50;;;5.22;;
55815;SDS011;41744;52.404;16.942;2023-07-28T05:42:16;8.48;;;5.75;;
55815;SDS011;41744;52.404;16.942;2023-07-28T05:44:42;9.13;;;5.82;;
55815;SDS011;41744;52.404;16.942;2023-07-28T05:47:10;7.22;;;5.35;;
55815;SDS011;41744;52.404;16.942;2023-07-28T05:49:36;9.80;;;5.57;;
55815;SDS011;41744;52.404;16.942;2023-07-28T05:52:02;10.73;;;5.25;;
55815;SDS011;41744;52.404;16.942;2023-07-28T05:57:31;6.75;;;5.43;;
55815;SDS011;41744;52.404;16.942;2023-07-28T05:59:57;8.23;;;5.45;;
55815;SDS011;41744;52.404;16.942;2023-07-28T06:02:23;8.95;;;6.50;;
55815;SDS011;41744;52.404;16.942;2023-07-28T06:07:53;11.13;;;6.20;;
55815;SDS011;41744;52.404;16.942;2023-07-28T06:10:19;7.22;;;5.80;;
55815;SDS011;41744;52.404;16.942;2023-07-28T06:12:45;9.05;;;5.93;;
55815;SDS011;41744;52.404;16.942;2023-07-28T06:15:11;8.20;;;5.55;;
55815;SDS011;41744;52.404;16.942;2023-07-28T06:17:37;7.57;;;5.82;;
55815;SDS011;41744;52.404;16.942;2023-07-28T06:20:03;7.55;;;5.72;;
55815;SDS011;41744;52.404;16.942;2023-07-28T06:22:29;9.32;;;5.70;;
55815;SDS011;41744;52.404;16.942;2023-07-28T06:27:58;7.07;;;4.95;;
55815;SDS011;41744;52.404;16.942;2023-07-28T06:30:24;7.18;;;4.97;;
55815;SDS011;41744;52.404;16.942;2023-07-28T06:32:51;9.00;;;5.05;;
55815;SDS011;41744;52.404;16.942;2023-07-28T06:35:17;6.82;;;4.82;;
55815;SDS011;41744;52.404;16.942;2023-07-28T06:37:43;6.80;;;4.68;;
55815;SDS011;41744;52.404;16.942;2023-07-28T06:40:09;6.75;;;4.70;;
55815;SDS011;41744;52.404;16.942;2023-07-28T06:42:36;6.25;;;4.43;;
55815;SDS011;41744;52.404;16.942;2023-07-28T06:45:02;5.65;;;4.18;;
55815;SDS011;41744;52.404;16.942;2023-07-28T06:47:28;8.15;;;4.72;;
55815;SDS011;41744;52.404;16.942;2023-07-28T06:49:54;22.23;;;8.38;;
55815;SDS011;41744;52.404;16.942;2023-07-28T06:52:21;15.15;;;6.32;;
55815;SDS011;41744;52.404;16.942;2023-07-28T06:57:50;10.55;;;4.65;;
55815;SDS011;41744;52.404;16.942;2023-07-28T07:00:16;20.95;;;9.38;;
55815;SDS011;41744;52.404;16.942;2023-07-28T07:02:45;13.35;;;6.10;;
55815;SDS011;41744;52.404;16.942;2023-07-28T07:05:11;10.75;;;5.28;;
55815;SDS011;41744;52.404;16.942;2023-07-28T07:07:38;10.15;;;4.80;;
55815;SDS011;41744;52.404;16.942;2023-07-28T07:10:04;10.38;;;5.38;;
55815;SDS011;41744;52.404;16.942;2023-07-28T07:12:31;12.05;;;5.97;;
55815;SDS011;41744;52.404;16.942;2023-07-28T07:14:57;20.15;;;7.07;;
55815;SDS011;41744;52.404;16.942;2023-07-28T07:17:23;8.63;;;4.68;;
55815;SDS011;41744;52.404;16.942;2023-07-28T07:19:49;11.18;;;4.68;;
55815;SDS011;41744;52.404;16.942;2023-07-28T07:22:15;11.88;;;5.78;;
55815;SDS011;41744;52.404;16.942;2023-07-28T07:27:44;17.02;;;6.50;;
55815;SDS011;41744;52.404;16.942;2023-07-28T07:30:11;12.73;;;4.90;;
55815;SDS011;41744;52.404;16.942;2023-07-28T07:32:37;9.40;;;3.80;;
55815;SDS011;41744;52.404;16.942;2023-07-28T07:35:03;8.05;;;3.70;;
55815;SDS011;41744;52.404;16.942;2023-07-28T07:37:29;7.72;;;3.60;;
55815;SDS011;41744;52.404;16.942;2023-07-28T07:39:57;6.55;;;3.60;;
55815;SDS011;41744;52.404;16.942;2023-07-28T07:42:25;7.55;;;3.45;;
55815;SDS011;41744;52.404;16.942;2023-07-28T07:44:51;7.60;;;3.60;;
55815;SDS011;41744;52.404;16.942;2023-07-28T07:47:17;6.80;;;3.75;;
55815;SDS011;41744;52.404;16.942;2023-07-28T07:49:43;8.85;;;4.10;;
55815;SDS011;41744;52.404;16.942;2023-07-28T07:52:09;10.30;;;4.03;;
55815;SDS011;41744;52.404;16.942;2023-07-28T07:57:46;5.47;;;3.45;;
55815;SDS011;41744;52.404;16.942;2023-07-28T08:00:12;7.78;;;3.90;;
55815;SDS011;41744;52.404;16.942;2023-07-28T08:02:38;6.75;;;3.28;;
55815;SDS011;41744;52.404;16.942;2023-07-28T08:05:04;7.50;;;3.42;;
55815;SDS011;41744;52.404;16.942;2023-07-28T08:07:30;4.88;;;3.40;;
55815;SDS011;41744;52.404;16.942;2023-07-28T08:09:56;6.35;;;3.40;;
55815;SDS011;41744;52.404;16.942;2023-07-28T08:12:22;6.95;;;3.35;;
55815;SDS011;41744;52.404;16.942;2023-07-28T08:17:52;5.85;;;3.60;;
55815;SDS011;41744;52.404;16.942;2023-07-28T08:20:18;7.65;;;3.30;;
55815;SDS011;41744;52.404;16.942;2023-07-28T08:22:45;11.25;;;3.65;;
55815;SDS011;41744;52.404;16.942;2023-07-28T08:25:11;6.28;;;3.45;;
55815;SDS011;41744;52.404;16.942;2023-07-28T08:27:37;6.18;;;3.28;;
55815;SDS011;41744;52.404;16.942;2023-07-28T08:30:03;4.72;;;3.70;;
55815;SDS011;41744;52.404;16.942;2023-07-28T08:32:30;3.53;;;3.13;;
55815;SDS011;41744;52.404;16.942;2023-07-28T08:34:56;5.55;;;3.80;;
55815;SDS011;41744;52.404;16.942;2023-07-28T08:37:22;5.65;;;3.40;;
55815;SDS011;41744;52.404;16.942;2023-07-28T08:39:48;6.47;;;3.38;;
55815;SDS011;41744;52.404;16.942;2023-07-28T08:42:14;3.88;;;3.38;;
55815;SDS011;41744;52.404;16.942;2023-07-28T08:44:40;7.13;;;2.92;;
55815;SDS011;41744;52.404;16.942;2023-07-28T08:47:06;5.97;;;3.60;;
55815;SDS011;41744;52.404;16.942;2023-07-28T08:49:32;3.80;;;3.17;;
55815;SDS011;41744;52.404;16.942;2023-07-28T08:52:01;5.57;;;4.10;;
55815;SDS011;41744;52.404;16.942;2023-07-28T08:57:31;3.70;;;3.35;;
55815;SDS011;41744;52.404;16.942;2023-07-28T08:59:57;3.53;;;3.13;;
55815;SDS011;41744;52.404;16.942;2023-07-28T09:02:23;5.47;;;3.00;;
55815;SDS011;41744;52.404;16.942;2023-07-28T09:04:50;7.13;;;3.03;;
55815;SDS011;41744;52.404;16.942;2023-07-28T09:07:16;4.68;;;3.40;;
55815;SDS011;41744;52.404;16.942;2023-07-28T09:09:42;4.25;;;3.28;;
55815;SDS011;41744;52.404;16.942;2023-07-28T09:12:08;5.82;;;3.05;;
55815;SDS011;41744;52.404;16.942;2023-07-28T09:17:45;5.18;;;2.80;;
55815;SDS011;41744;52.404;16.942;2023-07-28T09:20:14;5.80;;;2.70;;
55815;SDS011;41744;52.404;16.942;2023-07-28T09:22:40;4.22;;;2.50;;
55815;SDS011;41744;52.404;16.942;2023-07-28T09:25:15;3.75;;;2.55;;
55815;SDS011;41744;52.404;16.942;2023-07-28T09:27:51;3.50;;;2.58;;
55815;SDS011;41744;52.404;16.942;2023-07-28T09:30:17;4.10;;;2.70;;
55815;SDS011;41744;52.404;16.942;2023-07-28T09:32:46;2.95;;;2.60;;
55815;SDS011;41744;52.404;16.942;2023-07-28T09:35:13;3.55;;;2.20;;
55815;SDS011;41744;52.404;16.942;2023-07-28T09:37:40;3.35;;;2.13;;
55815;SDS011;41744;52.404;16.942;2023-07-28T09:40:10;4.15;;;2.30;;
55815;SDS011;41744;52.404;16.942;2023-07-28T09:42:37;3.88;;;2.45;;
55815;SDS011;41744;52.404;16.942;2023-07-28T09:45:04;2.88;;;2.30;;
55815;SDS011;41744;52.404;16.942;2023-07-28T09:47:30;7.70;;;2.80;;
55815;SDS011;41744;52.404;16.942;2023-07-28T09:49:59;3.45;;;2.22;;
55815;SDS011;41744;52.404;16.942;2023-07-28T09:52:28;2.88;;;2.05;;
55815;SDS011;41744;52.404;16.942;2023-07-28T09:54:56;4.38;;;2.95;;
55815;SDS011;41744;52.404;16.942;2023-07-28T09:57:24;5.15;;;2.60;;
55815;SDS011;41744;52.404;16.942;2023-07-28T09:59:52;2.95;;;2.10;;
55815;SDS011;41744;52.404;16.942;2023-07-28T10:02:20;2.30;;;2.10;;
55815;SDS011;41744;52.404;16.942;2023-07-28T10:07:49;3.78;;;2.00;;
55815;SDS011;41744;52.404;16.942;2023-07-28T10:10:15;3.58;;;1.80;;
55815;SDS011;41744;52.404;16.942;2023-07-28T10:12:46;3.28;;;1.90;;
55815;SDS011;41744;52.404;16.942;2023-07-28T10:15:13;2.72;;;2.05;;
55815;SDS011;41744;52.404;16.942;2023-07-28T10:17:41;2.15;;;1.75;;
55815;SDS011;41744;52.404;16.942;2023-07-28T10:20:43;4.53;;;1.92;;
55815;SDS011;41744;52.404;16.942;2023-07-28T10:23:13;1.65;;;1.45;;
55815;SDS011;41744;52.404;16.942;2023-07-28T10:25:40;2.53;;;1.55;;
55815;SDS011;41744;52.404;16.942;2023-07-28T10:28:06;2.33;;;1.90;;
55815;SDS011;41744;52.404;16.942;2023-07-28T10:30:51;2.70;;;1.60;;
55815;SDS011;41744;52.404;16.942;2023-07-28T10:33:27;4.50;;;1.60;;
55815;SDS011;41744;52.404;16.942;2023-07-28T10:35:54;2.08;;;1.80;;
55815;SDS011;41744;52.404;16.942;2023-07-28T10:38:27;3.47;;;1.60;;
55815;SDS011;41744;52.404;16.942;2023-07-28T10:41:04;3.15;;;1.75;;
55815;SDS011;41744;52.404;16.942;2023-07-28T10:43:30;4.05;;;1.67;;
55815;SDS011;41744;52.404;16.942;2023-07-28T10:45:56;2.33;;;1.80;;
55815;SDS011;41744;52.404;16.942;2023-07-28T10:48:22;3.55;;;2.00;;
55815;SDS011;41744;52.404;16.942;2023-07-28T10:50:49;3.28;;;2.42;;
55815;SDS011;41744;52.404;16.942;2023-07-28T10:53:15;2.30;;;2.08;;
55815;SDS011;41744;52.404;16.942;2023-07-28T10:55:41;2.03;;;1.70;;
55815;SDS011;41744;52.404;16.942;2023-07-28T10:58:07;1.90;;;1.70;;
55815;SDS011;41744;52.404;16.942;2023-07-28T11:00:33;3.28;;;1.70;;
55815;SDS011;41744;52.404;16.942;2023-07-28T11:02:59;4.07;;;2.00;;
55815;SDS011;41744;52.404;16.942;2023-07-28T11:05:30;2.95;;;1.85;;
55815;SDS011;41744;52.404;16.942;2023-07-28T11:08:00;2.72;;;1.90;;
55815;SDS011;41744;52.404;16.942;2023-07-28T11:10:31;2.25;;;1.70;;
55815;SDS011;41744;52.404;16.942;2023-07-28T11:13:06;2.78;;;1.70;;
55815;SDS011;41744;52.404;16.942;2023-07-28T11:15:32;4.10;;;1.60;;
55815;SDS011;41744;52.404;16.942;2023-07-28T11:17:58;3.90;;;1.73;;
55815;SDS011;41744;52.404;16.942;2023-07-28T11:20:27;4.55;;;1.65;;
55815;SDS011;41744;52.404;16.942;2023-07-28T11:22:57;4.22;;;1.50;;
55815;SDS011;41744;52.404;16.942;2023-07-28T11:28:34;4.32;;;1.50;;
55815;SDS011;41744;52.404;16.942;2023-07-28T11:31:00;2.50;;;1.70;;
55815;SDS011;41744;52.404;16.942;2023-07-28T11:33:28;3.20;;;1.60;;
55815;SDS011;41744;52.404;16.942;2023-07-28T11:35:54;2.00;;;1.50;;
55815;SDS011;41744;52.404;16.942;2023-07-28T11:38:21;1.88;;;1.63;;
55815;SDS011;41744;52.404;16.942;2023-07-28T11:40:47;3.08;;;1.45;;
55815;SDS011;41744;52.404;16.942;2023-07-28T11:43:13;2.42;;;1.50;;
55815;SDS011;41744;52.404;16.942;2023-07-28T11:45:39;2.88;;;1.60;;
55815;SDS011;41744;52.404;16.942;2023-07-28T11:48:06;2.22;;;1.80;;
55815;SDS011;41744;52.404;16.942;2023-07-28T11:50:39;1.80;;;1.60;;
55815;SDS011;41744;52.404;16.942;2023-07-28T11:53:06;2.00;;;1.80;;
55815;SDS011;41744;52.404;16.942;2023-07-28T11:55:33;3.60;;;1.67;;
55815;SDS011;41744;52.404;16.942;2023-07-28T11:57:59;2.20;;;1.85;;
55815;SDS011;41744;52.404;16.942;2023-07-28T12:00:30;1.60;;;1.50;;
55815;SDS011;41744;52.404;16.942;2023-07-28T12:03:03;2.20;;;1.80;;
55815;SDS011;41744;52.404;16.942;2023-07-28T12:05:29;3.25;;;1.50;;
55815;SDS011;41744;52.404;16.942;2023-07-28T12:07:55;4.07;;;2.00;;
55815;SDS011;41744;52.404;16.942;2023-07-28T12:10:21;4.20;;;1.92;;
55815;SDS011;41744;52.404;16.942;2023-07-28T12:12:49;2.42;;;2.00;;
55815;SDS011;41744;52.404;16.942;2023-07-28T12:15:25;4.28;;;2.00;;
55815;SDS011;41744;52.404;16.942;2023-07-28T12:18:11;2.10;;;1.75;;
55815;SDS011;41744;52.404;16.942;2023-07-28T12:20:44;3.50;;;1.85;;
55815;SDS011;41744;52.404;16.942;2023-07-28T12:23:15;2.28;;;1.85;;
55815;SDS011;41744;52.404;16.942;2023-07-28T12:25:42;2.10;;;1.90;;
55815;SDS011;41744;52.404;16.942;2023-07-28T12:28:09;2.80;;;1.80;;
55815;SDS011;41744;52.404;16.942;2023-07-28T12:30:35;3.22;;;2.00;;
55815;SDS011;41744;52.404;16.942;2023-07-28T12:33:02;2.47;;;1.77;;
55815;SDS011;41744;52.404;16.942;2023-07-28T12:35:29;5.85;;;1.80;;
55815;SDS011;41744;52.404;16.942;2023-07-28T12:38:02;3.47;;;1.65;;
55815;SDS011;41744;52.404;16.942;2023-07-28T12:40:31;2.70;;;2.00;;
55815;SDS011;41744;52.404;16.942;2023-07-28T12:42:58;3.22;;;1.80;;
55815;SDS011;41744;52.404;16.942;2023-07-28T12:45:25;1.65;;;1.55;;
55815;SDS011;41744;52.404;16.942;2023-07-28T12:47:55;3.08;;;1.90;;
55815;SDS011;41744;52.404;16.942;2023-07-28T12:50:21;2.28;;;1.73;;
55815;SDS011;41744;52.404;16.942;2023-07-28T12:52:48;2.67;;;1.92;;
55815;SDS011;41744;52.404;16.942;2023-07-28T12:55:14;2.63;;;1.90;;
55815;SDS011;41744;52.404;16.942;2023-07-28T12:57:41;5.90;;;2.20;;
55815;SDS011;41744;52.404;16.942;2023-07-28T13:00:07;3.25;;;2.42;;
55815;SDS011;41744;52.404;16.942;2023-07-28T13:02:38;3.05;;;2.00;;
55815;SDS011;41744;52.404;16.942;2023-07-28T13:08:08;3.47;;;2.08;;
55815;SDS011;41744;52.404;16.942;2023-07-28T13:10:34;5.00;;;2.03;;
55815;SDS011;41744;52.404;16.942;2023-07-28T13:13:00;2.90;;;2.05;;
55815;SDS011;41744;52.404;16.942;2023-07-28T13:15:26;4.10;;;1.70;;
55815;SDS011;41744;52.404;16.942;2023-07-28T13:17:52;5.53;;;1.80;;
55815;SDS011;41744;52.404;16.942;2023-07-28T13:20:18;2.58;;;1.60;;
55815;SDS011;41744;52.404;16.942;2023-07-28T13:22:44;2.80;;;1.77;;
55815;SDS011;41744;52.404;16.942;2023-07-28T13:25:10;3.15;;;2.05;;
55815;SDS011;41744;52.404;16.942;2023-07-28T13:27:37;13.05;;;4.30;;
55815;SDS011;41744;52.404;16.942;2023-07-28T13:30:03;5.30;;;2.10;;
55815;SDS011;41744;52.404;16.942;2023-07-28T13:32:30;4.47;;;1.98;;
55815;SDS011;41744;52.404;16.942;2023-07-28T13:37:59;2.85;;;1.40;;
55815;SDS011;41744;52.404;16.942;2023-07-28T13:40:25;2.17;;;1.50;;
55815;SDS011;41744;52.404;16.942;2023-07-28T13:42:51;2.40;;;1.70;;
55815;SDS011;41744;52.404;16.942;2023-07-28T13:45:18;1.65;;;1.45;;
55815;SDS011;41744;52.404;16.942;2023-07-28T13:47:44;2.53;;;1.65;;
55815;SDS011;41744;52.404;16.942;2023-07-28T13:50:10;3.15;;;1.83;;
55815;SDS011;41744;52.404;16.942;2023-07-28T13:52:36;3.35;;;1.67;;
55815;SDS011;41744;52.404;16.942;2023-07-28T13:55:02;3.45;;;1.90;;
55815;SDS011;41744;52.404;16.942;2023-07-28T13:57:29;2.92;;;1.50;;
55815;SDS011;41744;52.404;16.942;2023-07-28T13:59:56;2.88;;;1.77;;
55815;SDS011;41744;52.404;16.942;2023-07-28T14:02:22;2.83;;;1.80;;
55815;SDS011;41744;52.404;16.942;2023-07-28T14:07:52;2.83;;;1.70;;
55815;SDS011;41744;52.404;16.942;2023-07-28T14:10:18;2.33;;;1.65;;
55815;SDS011;41744;52.404;16.942;2023-07-28T14:12:44;3.45;;;2.00;;
55815;SDS011;41744;52.404;16.942;2023-07-28T14:15:10;2.20;;;1.90;;
55815;SDS011;41744;52.404;16.942;2023-07-28T14:17:36;2.08;;;1.60;;
55815;SDS011;41744;52.404;16.942;2023-07-28T14:20:02;3.42;;;1.60;;
55815;SDS011;41744;52.404;16.942;2023-07-28T14:22:28;3.25;;;1.67;;
55815;SDS011;41744;52.404;16.942;2023-07-28T14:24:54;2.33;;;1.75;;
55815;SDS011;41744;52.404;16.942;2023-07-28T14:27:20;2.17;;;1.85;;
55815;SDS011;41744;52.404;16.942;2023-07-28T14:29:46;1.90;;;1.58;;
55815;SDS011;41744;52.404;16.942;2023-07-28T14:32:12;2.35;;;1.60;;
55815;SDS011;41744;52.404;16.942;2023-07-28T14:37:48;2.88;;;1.50;;
55815;SDS011;41744;52.404;16.942;2023-07-28T14:40:14;3.13;;;2.05;;
55815;SDS011;41744;52.404;16.942;2023-07-28T14:42:40;4.57;;;1.75;;
55815;SDS011;41744;52.404;16.942;2023-07-28T14:45:06;7.35;;;2.70;;
55815;SDS011;41744;52.404;16.942;2023-07-28T14:47:32;3.85;;;2.50;;
55815;SDS011;41744;52.404;16.942;2023-07-28T14:49:58;4.40;;;2.33;;
55815;SDS011;41744;52.404;16.942;2023-07-28T14:52:24;4.22;;;1.83;;
55815;SDS011;41744;52.404;16.942;2023-07-28T14:57:54;4.75;;;1.75;;
55815;SDS011;41744;52.404;16.942;2023-07-28T15:00:20;7.20;;;2.67;;
55815;SDS011;41744;52.404;16.942;2023-07-28T15:02:46;12.27;;;5.28;;
55815;SDS011;41744;52.404;16.942;2023-07-28T15:08:15;5.55;;;1.63;;
55815;SDS011;41744;52.404;16.942;2023-07-28T15:10:41;3.35;;;2.20;;
55815;SDS011;41744;52.404;16.942;2023-07-28T15:13:08;3.53;;;2.40;;
55815;SDS011;41744;52.404;16.942;2023-07-28T15:15:34;4.10;;;2.00;;
55815;SDS011;41744;52.404;16.942;2023-07-28T15:18:00;3.58;;;2.03;;
55815;SDS011;41744;52.404;16.942;2023-07-28T15:20:26;4.65;;;2.40;;
55815;SDS011;41744;52.404;16.942;2023-07-28T15:22:52;6.63;;;2.53;;
55815;SDS011;41744;52.404;16.942;2023-07-28T15:28:21;6.32;;;2.25;;
55815;SDS011;41744;52.404;16.942;2023-07-28T15:30:47;5.40;;;2.30;;
55815;SDS011;41744;52.404;16.942;2023-07-28T15:33:16;5.63;;;2.20;;
55815;SDS011;41744;52.404;16.942;2023-07-28T15:35:42;3.80;;;2.10;;
55815;SDS011;41744;52.404;16.942;2023-07-28T15:38:08;3.72;;;2.10;;
55815;SDS011;41744;52.404;16.942;2023-07-28T15:40:34;4.13;;;1.67;;
55815;SDS011;41744;52.404;16.942;2023-07-28T15:43:00;4.78;;;1.90;;
55815;SDS011;41744;52.404;16.942;2023-07-28T15:45:26;4.65;;;1.98;;
55815;SDS011;41744;52.404;16.942;2023-07-28T15:47:52;5.03;;;1.70;;
55815;SDS011;41744;52.404;16.942;2023-07-28T15:50:18;2.05;;;1.55;;
55815;SDS011;41744;52.404;16.942;2023-07-28T15:52:44;3.95;;;1.77;;
55815;SDS011;41744;52.404;16.942;2023-07-28T15:58:14;2.78;;;1.70;;
55815;SDS011;41744;52.404;16.942;2023-07-28T16:00:40;2.70;;;1.52;;
55815;SDS011;41744;52.404;16.942;2023-07-28T16:03:06;3.25;;;1.52;;
55815;SDS011;41744;52.404;16.942;2023-07-28T16:05:32;2.78;;;1.70;;
55815;SDS011;41744;52.404;16.942;2023-07-28T16:08:02;2.75;;;1.80;;
55815;SDS011;41744;52.404;16.942;2023-07-28T16:10:28;3.10;;;1.60;;